Time;durP1;ratioP1;P1;durP2;ratioP2;P2;SDS_P1;SDS_P2;PMS_P1;PMS_P2;Temp;Humidity;BMP_temperature;BMP_pressure;BME280_temperature;BME280_humidity;BME280_pressure;Samples;Min_cycle;Max_cycle;Signal;HPM_P1;HPM_P2
2021/08/12 00:01:24;;;;;;;14.73;9.58;;;;;;;12.21;73.48;101134.27;1771349;80;21021;-76
2021/08/12 00:03:50;;;;;;;17.50;11.43;;;;;;;12.18;73.56;101134.07;1771233;80;21036;-76
2021/08/12 00:06:16;;;;;;;13.08;9.63;;;;;;;12.19;73.62;101135.75;1771358;81;20997;-76
2021/08/12 00:08:42;;;;;;;14.65;9.68;;;;;;;12.17;73.67;101135.59;1771293;80;21045;-76
2021/08/12 00:11:09;;;;;;;11.70;8.53;;;;;;;12.14;73.71;101131.91;1771258;81;21076;-76
2021/08/12 00:13:35;;;;;;;11.75;8.63;;;;;;;12.12;73.76;101136.56;1771637;81;21140;-76
2021/08/12 00:16:03;;;;;;;13.95;9.65;;;;;;;12.10;73.83;101142.09;1771397;80;21524;-76
2021/08/12 00:18:30;;;;;;;13.38;8.85;;;;;;;12.09;73.86;101144.41;1771244;81;20989;-76
2021/08/12 00:20:56;;;;;;;11.30;8.88;;;;;;;12.07;73.93;101150.41;1771227;80;21088;-76
2021/08/12 00:23:22;;;;;;;13.65;9.50;;;;;;;12.05;74.00;101151.08;1771381;80;21025;-76
2021/08/12 00:25:48;;;;;;;13.00;7.80;;;;;;;12.04;74.03;101149.39;1771385;81;21064;-76
2021/08/12 00:28:14;;;;;;;11.70;8.70;;;;;;;12.03;74.09;101154.42;1771579;81;20981;-76
2021/08/12 00:30:40;;;;;;;13.30;9.15;;;;;;;12.01;74.15;101152.39;1771803;80;21473;-76
2021/08/12 00:33:06;;;;;;;12.53;8.93;;;;;;;12.00;74.21;101163.58;1777115;80;21033;-76
2021/08/12 00:35:33;;;;;;;11.30;8.95;;;;;;;11.99;74.26;101157.92;1780084;80;20996;-76
2021/08/12 00:37:59;;;;;;;12.70;8.58;;;;;;;11.98;74.32;101159.40;1772036;80;21151;-76
2021/08/12 00:40:25;;;;;;;13.28;9.40;;;;;;;11.96;74.36;101161.41;1771503;81;20984;-76
2021/08/12 00:42:51;;;;;;;13.58;9.23;;;;;;;11.94;74.40;101163.38;1771580;81;21035;-76
2021/08/12 00:45:17;;;;;;;11.63;8.03;;;;;;;11.92;74.47;101169.41;1771647;81;21525;-76
2021/08/12 00:47:43;;;;;;;11.43;8.75;;;;;;;11.88;74.50;101161.36;1771476;81;21052;-76
2021/08/12 00:50:10;;;;;;;12.60;8.48;;;;;;;11.85;74.57;101167.03;1771831;80;21794;-76
2021/08/12 00:52:36;;;;;;;12.28;9.85;;;;;;;11.83;74.64;101167.17;1771439;81;21509;-76
2021/08/12 00:55:02;;;;;;;13.48;9.35;;;;;;;11.81;74.69;101161.66;1771682;81;21029;-76
2021/08/12 00:57:28;;;;;;;16.75;10.08;;;;;;;11.79;74.77;101164.97;1749518;81;20990;-76
2021/08/12 00:59:54;;;;;;;14.45;9.63;;;;;;;11.79;74.83;101167.64;1771475;80;21072;-76
2021/08/12 01:02:20;;;;;;;16.45;9.08;;;;;;;11.75;74.87;101161.77;1771328;81;21051;-76
2021/08/12 01:04:48;;;;;;;14.23;10.10;;;;;;;11.74;74.94;101163.29;1771560;81;21017;-76
2021/08/12 01:07:18;;;;;;;16.15;11.12;;;;;;;11.72;74.99;101162.59;1771790;81;21056;-76
2021/08/12 01:09:55;;;;;;;20.17;11.85;;;;;;;11.70;75.04;101164.08;1771499;80;20996;-76
2021/08/12 01:12:50;;;;;;;17.82;11.30;;;;;;;11.69;75.11;101165.55;1770945;79;21049;-76
2021/08/12 01:15:22;;;;;;;18.95;11.40;;;;;;;11.66;75.15;101167.20;1771668;81;21172;-76
2021/08/12 01:17:51;;;;;;;18.92;10.35;;;;;;;11.65;75.20;101165.52;1764282;81;20977;-76
2021/08/12 01:21:05;;;;;;;15.13;9.88;;;;;;;11.64;75.24;101163.38;1771534;81;21347;-77
2021/08/12 01:23:31;;;;;;;14.50;9.58;;;;;;;11.63;75.30;101164.86;1771015;81;21028;-76
2021/08/12 01:25:57;;;;;;;13.78;9.70;;;;;;;11.60;75.35;101167.84;1771661;81;21012;-76
2021/08/12 01:28:28;;;;;;;14.35;9.13;;;;;;;11.58;75.38;101160.47;1771587;81;21127;-76
2021/08/12 01:30:59;;;;;;;13.53;8.93;;;;;;;11.57;75.41;101165.50;1771333;80;21060;-76
2021/08/12 01:33:43;;;;;;;11.78;8.80;;;;;;;11.54;75.47;101162.62;1766539;80;21265;-76
2021/08/12 01:36:09;;;;;;;15.93;9.58;;;;;;;11.51;75.52;101169.13;1746898;80;21058;-76
2021/08/12 01:38:35;;;;;;;13.70;9.73;;;;;;;11.49;75.55;101159.11;1729965;81;21479;-76
2021/08/12 01:41:01;;;;;;;14.75;11.22;;;;;;;11.46;75.61;101155.91;1729618;83;21480;-76
2021/08/12 01:43:27;;;;;;;15.83;11.55;;;;;;;11.44;75.64;101160.55;1729749;81;21027;-76
2021/08/12 01:45:54;;;;;;;10.20;8.98;;;;;;;11.41;75.71;101163.05;1729672;83;21006;-76
2021/08/12 01:48:22;;;;;;;14.75;9.63;;;;;;;11.38;75.77;101162.03;1729725;83;21003;-76
2021/08/12 01:50:49;;;;;;;11.93;9.83;;;;;;;11.36;75.82;101158.69;1729703;81;21010;-76
2021/08/12 01:53:15;;;;;;;15.20;9.13;;;;;;;11.35;75.85;101166.36;1707034;82;21139;-76
2021/08/12 01:55:41;;;;;;;18.12;9.43;;;;;;;11.33;75.92;101166.98;1729897;83;21051;-76
2021/08/12 01:58:07;;;;;;;15.13;10.03;;;;;;;11.32;75.95;101172.02;1729427;83;21478;-76
2021/08/12 02:00:33;;;;;;;14.07;8.98;;;;;;;11.30;76.00;101167.80;1729317;83;21558;-76
2021/08/12 02:02:59;;;;;;;11.38;8.50;;;;;;;11.28;76.04;101163.13;1729860;81;21053;-76
2021/08/12 02:05:26;;;;;;;12.33;8.30;;;;;;;11.26;76.10;101164.60;1729649;83;21081;-76
2021/08/12 02:07:52;;;;;;;19.42;10.60;;;;;;;11.24;76.14;101160.41;1729683;81;21547;-76
2021/08/12 02:10:18;;;;;;;24.87;14.28;;;;;;;11.22;76.19;101163.27;1729695;83;21066;-76
2021/08/12 02:12:44;;;;;;;43.00;21.30;;;;;;;11.22;76.23;101162.42;1729841;83;21026;-76
2021/08/12 02:15:11;;;;;;;29.32;18.40;;;;;;;11.21;76.26;101168.25;1729348;83;21057;-76
2021/08/12 02:17:37;;;;;;;23.45;14.30;;;;;;;11.20;76.30;101163.05;1729699;83;21180;-76
2021/08/12 02:20:11;;;;;;;13.43;8.85;;;;;;;11.19;76.33;101166.73;1729433;81;21487;-76
2021/08/12 02:22:45;;;;;;;13.05;8.18;;;;;;;11.18;76.38;101160.55;1707178;83;21040;-76
2021/08/12 02:25:15;;;;;;;12.58;8.03;;;;;;;11.16;76.44;101165.19;1729735;83;21034;-76
2021/08/12 02:27:43;;;;;;;11.93;8.75;;;;;;;11.14;76.48;101167.19;1729688;80;21053;-76
2021/08/12 02:30:11;;;;;;;28.32;17.23;;;;;;;11.13;76.54;101172.18;1729716;83;21606;-76
2021/08/12 02:32:37;;;;;;;26.65;18.12;;;;;;;11.12;76.57;101167.83;1736491;81;21044;-76
2021/08/12 02:35:04;;;;;;;26.42;17.40;;;;;;;11.10;76.59;101164.48;1768255;80;21651;-76
2021/08/12 02:37:30;;;;;;;14.78;9.53;;;;;;;11.08;76.62;101164.30;1771333;80;21485;-76
2021/08/12 02:39:56;;;;;;;12.13;8.93;;;;;;;11.06;76.67;101163.11;1771662;80;21044;-76
2021/08/12 02:42:22;;;;;;;22.77;9.45;;;;;;;11.04;76.73;101163.78;1775477;80;21111;-76
2021/08/12 02:44:48;;;;;;;12.75;9.00;;;;;;;11.02;76.79;101162.58;1771430;81;21102;-76
2021/08/12 02:47:14;;;;;;;13.80;8.95;;;;;;;11.02;76.84;101163.08;1771717;80;21036;-76
2021/08/12 02:49:43;;;;;;;12.78;9.23;;;;;;;11.00;76.88;101157.06;1771411;81;20997;-76
2021/08/12 02:52:10;;;;;;;16.17;9.60;;;;;;;10.99;76.91;101162.05;1771772;81;21044;-76
2021/08/12 02:54:36;;;;;;;17.30;10.20;;;;;;;10.98;76.95;101164.37;1771502;80;21109;-76
2021/08/12 02:57:02;;;;;;;14.15;10.25;;;;;;;10.98;76.99;101169.70;1771322;80;21521;-76
2021/08/12 02:59:28;;;;;;;17.30;10.68;;;;;;;10.96;77.03;101163.70;1771470;81;20989;-76
2021/08/12 03:01:54;;;;;;;15.60;10.15;;;;;;;10.94;77.07;101169.17;1771493;80;20993;-76
2021/08/12 03:04:21;;;;;;;14.98;10.20;;;;;;;10.94;77.09;101169.70;1771576;81;21020;-76
2021/08/12 03:06:50;;;;;;;17.98;11.95;;;;;;;10.93;77.13;101167.52;1771685;80;21181;-76
2021/08/12 03:09:16;;;;;;;15.93;11.43;;;;;;;10.92;77.14;101167.66;1771764;80;21018;-77
2021/08/12 03:11:42;;;;;;;17.55;11.05;;;;;;;10.90;77.21;101163.83;1771211;81;21047;-76
2021/08/12 03:14:08;;;;;;;16.42;9.95;;;;;;;10.90;77.23;101164.32;1771403;80;21024;-76
2021/08/12 03:16:34;;;;;;;14.28;9.93;;;;;;;10.88;77.26;101164.95;1770790;81;21008;-76
2021/08/12 03:19:02;;;;;;;16.23;10.68;;;;;;;10.87;77.28;101161.96;1749849;81;21104;-76
2021/08/12 03:21:28;;;;;;;14.65;10.35;;;;;;;10.84;77.35;101170.25;1771561;80;20981;-76
2021/08/12 03:23:56;;;;;;;14.95;10.03;;;;;;;10.83;77.40;101172.10;1771164;80;21087;-75
2021/08/12 03:26:22;;;;;;;12.47;8.60;;;;;;;10.82;77.41;101165.57;1771788;80;21036;-76
2021/08/12 03:28:48;;;;;;;16.05;8.38;;;;;;;10.80;77.47;101164.90;1771163;81;20993;-76
2021/08/12 03:31:14;;;;;;;10.50;7.62;;;;;;;10.79;77.50;101168.55;1771346;81;21130;-76
2021/08/12 03:33:41;;;;;;;13.80;7.83;;;;;;;10.79;77.58;101164.55;1751660;80;20991;-76
2021/08/12 03:36:07;;;;;;;10.58;7.20;;;;;;;10.80;77.59;101167.56;1729709;83;21445;-76
2021/08/12 03:38:34;;;;;;;13.55;7.42;;;;;;;10.79;77.62;101163.21;1729615;81;21533;-76
2021/08/12 03:41:00;;;;;;;10.48;7.28;;;;;;;10.81;77.68;101162.55;1729458;81;21006;-76
2021/08/12 03:43:26;;;;;;;12.93;8.55;;;;;;;10.82;77.73;101161.57;1729405;83;21103;-76
2021/08/12 03:45:52;;;;;;;14.70;8.08;;;;;;;10.84;77.76;101168.91;1729128;82;21006;-76
2021/08/12 03:48:18;;;;;;;14.70;8.75;;;;;;;10.87;77.80;101165.97;1729618;83;21014;-76
2021/08/12 03:50:45;;;;;;;14.15;9.80;;;;;;;10.88;77.83;101168.95;1729640;83;20988;-76
2021/08/12 03:53:11;;;;;;;15.50;9.70;;;;;;;10.91;77.86;101176.65;1729894;82;20991;-76
2021/08/12 03:55:37;;;;;;;15.75;9.05;;;;;;;10.94;77.88;101181.70;1729697;83;21796;-76
2021/08/12 03:58:03;;;;;;;14.28;9.35;;;;;;;10.96;77.94;101187.23;1729434;83;21001;-76
2021/08/12 04:00:29;;;;;;;20.10;12.85;;;;;;;11.00;77.97;101186.42;1729637;83;21074;-76
2021/08/12 04:02:55;;;;;;;23.27;14.13;;;;;;;11.05;77.99;101192.13;1729593;81;20982;-76
2021/08/12 04:05:21;;;;;;;17.75;11.63;;;;;;;11.09;78.00;101190.83;1729814;82;21074;-76
2021/08/12 04:07:47;;;;;;;17.67;10.88;;;;;;;11.14;78.03;101191.22;1729545;81;21150;-76
2021/08/12 04:10:13;;;;;;;22.00;11.43;;;;;;;11.20;78.05;101191.08;1729485;83;21070;-76
2021/08/12 04:12:39;;;;;;;16.57;10.80;;;;;;;11.26;78.07;101190.49;1729367;83;20999;-76
2021/08/12 04:15:06;;;;;;;19.17;12.13;;;;;;;11.34;78.12;101190.53;1729354;81;21007;-76
2021/08/12 04:17:32;;;;;;;14.18;10.32;;;;;;;12.01;78.56;101185.80;1729368;83;21082;-76
2021/08/12 04:19:58;;;;;;;12.25;8.53;;;;;;;13.10;78.64;101183.94;1729598;83;21117;-77
2021/08/12 04:22:25;;;;;;;10.78;7.60;;;;;;;14.04;78.38;101182.27;1729600;83;21547;-77
2021/08/12 04:24:51;;;;;;;9.95;6.62;;;;;;;14.94;78.00;101182.17;1729278;83;21609;-77
2021/08/12 04:27:17;;;;;;;9.70;5.95;;;;;;;16.60;77.14;101186.68;1729778;83;20998;-77
2021/08/12 04:29:43;;;;;;;8.83;6.60;;;;;;;16.60;77.14;101186.68;1729125;83;21050;-77
2021/08/12 04:32:09;;;;;;;8.60;5.45;;;;;;;17.34;76.58;101188.05;1729485;81;21170;-77
2021/08/12 04:34:35;;;;;;;10.23;6.03;;;;;;;18.12;75.85;101187.47;1756354;81;21057;-77
2021/08/12 04:37:02;;;;;;;8.05;5.30;;;;;;;18.73;75.12;101182.95;1766244;81;21009;-77
2021/08/12 04:39:28;;;;;;;6.30;4.97;;;;;;;19.30;74.27;101184.61;1769937;80;21564;-77
2021/08/12 04:41:54;;;;;;;7.17;4.40;;;;;;;19.77;73.48;101189.51;1771541;81;20997;-77
2021/08/12 04:44:20;;;;;;;9.63;5.97;;;;;;;20.13;72.61;101182.21;1771620;81;21080;-77
2021/08/12 04:46:46;;;;;;;7.35;5.50;;;;;;;20.27;71.75;101190.61;1771400;80;21060;-77
2021/08/12 04:49:13;;;;;;;11.45;6.17;;;;;;;20.73;70.72;101197.20;1771520;81;21049;-77
2021/08/12 04:51:39;;;;;;;13.83;10.23;;;;;;;21.21;69.57;101190.27;1771657;81;21013;-77
2021/08/12 04:54:05;;;;;;;12.93;10.18;;;;;;;21.54;68.58;101187.79;1771576;81;21064;-77
2021/08/12 04:56:31;;;;;;;11.08;6.95;;;;;;;21.30;67.62;101188.10;1771633;80;21140;-77
2021/08/12 04:58:58;;;;;;;11.78;5.83;;;;;;;20.43;66.99;101186.95;1771442;80;21023;-77
2021/08/12 05:01:24;;;;;;;12.43;5.08;;;;;;;20.38;67.10;101192.16;1784504;79;21493;-77
2021/08/12 05:03:50;;;;;;;6.53;4.47;;;;;;;20.59;66.22;101188.31;1798251;79;20998;-77
2021/08/12 05:06:16;;;;;;;8.30;4.37;;;;;;;20.56;65.62;101188.75;1775662;80;21011;-77
2021/08/12 05:08:43;;;;;;;6.90;4.40;;;;;;;20.53;65.59;101192.42;1748526;80;21180;-77
2021/08/12 05:11:11;;;;;;;11.20;4.50;;;;;;;20.34;65.59;101189.57;1752064;80;21452;-77
2021/08/12 05:13:37;;;;;;;12.95;4.35;;;;;;;20.21;65.62;101188.24;1742607;81;21043;-77
2021/08/12 05:16:04;;;;;;;8.78;4.17;;;;;;;20.28;65.43;101191.79;1743138;81;21079;-77
2021/08/12 05:18:30;;;;;;;7.12;4.78;;;;;;;20.41;65.09;101198.50;1765477;80;21305;-77
2021/08/12 05:20:57;;;;;;;12.55;4.55;;;;;;;20.41;64.83;101205.28;1742995;81;21186;-78
2021/08/12 05:23:23;;;;;;;8.20;5.08;;;;;;;20.41;64.60;101204.45;1743061;81;21047;-78
2021/08/12 05:25:49;;;;;;;16.45;6.35;;;;;;;20.48;64.41;101203.09;1752151;81;21464;-77
2021/08/12 05:28:15;;;;;;;14.75;7.80;;;;;;;20.67;64.12;101215.19;1761432;81;21023;-77
2021/08/12 05:30:41;;;;;;;16.17;7.42;;;;;;;20.96;63.69;101204.81;1760536;80;21038;-77
2021/08/12 05:33:07;;;;;;;13.30;7.28;;;;;;;21.15;63.27;101207.41;1774718;80;21180;-77
2021/08/12 05:35:33;;;;;;;16.60;11.03;;;;;;;21.31;62.94;101213.67;1774222;79;20976;-78
2021/08/12 05:37:59;;;;;;;17.48;8.40;;;;;;;21.38;62.58;101213.10;1773784;79;21075;-78
2021/08/12 05:40:25;;;;;;;12.78;7.72;;;;;;;21.54;62.14;101210.86;1774068;80;20984;-78
2021/08/12 05:42:51;;;;;;;9.30;5.97;;;;;;;21.71;61.75;101213.35;1773863;80;20988;-78
2021/08/12 05:45:17;;;;;;;7.55;5.00;;;;;;;21.83;61.36;101212.91;1774181;80;21469;-78
2021/08/12 05:47:43;;;;;;;11.57;5.62;;;;;;;21.88;60.96;101215.80;1773982;80;21007;-78
2021/08/12 05:50:09;;;;;;;9.23;5.58;;;;;;;21.90;60.54;101213.17;1774033;79;21445;-78
2021/08/12 05:52:37;;;;;;;8.55;5.08;;;;;;;22.08;60.29;101214.25;1773131;80;21472;-78
2021/08/12 05:55:04;;;;;;;13.05;5.80;;;;;;;22.21;59.98;101210.02;1763841;80;21027;-77
2021/08/12 05:57:30;;;;;;;7.12;4.67;;;;;;;22.25;59.72;101215.31;1760179;80;21526;-77
2021/08/12 05:59:56;;;;;;;7.12;4.87;;;;;;;22.30;59.44;101212.23;1763748;80;20903;-77
2021/08/12 06:02:22;;;;;;;12.30;5.90;;;;;;;22.35;59.09;101212.36;1755469;80;21086;-78
2021/08/12 06:04:48;;;;;;;8.65;4.50;;;;;;;22.50;58.83;101211.14;1743691;80;21003;-77
2021/08/12 06:07:14;;;;;;;10.13;4.12;;;;;;;22.64;58.51;101209.91;1748833;80;21028;-77
2021/08/12 06:09:40;;;;;;;8.15;4.75;;;;;;;22.75;58.10;101210.02;1815458;77;21682;-78
2021/08/12 06:12:07;;;;;;;8.08;5.60;;;;;;;22.87;57.92;101222.28;1782566;80;20971;-78
2021/08/12 06:14:33;;;;;;;9.83;4.70;;;;;;;23.06;57.62;101216.27;1785063;80;20982;-77
2021/08/12 06:16:59;;;;;;;6.80;4.50;;;;;;;23.09;57.26;101219.35;1802694;77;21006;-77
2021/08/12 06:19:25;;;;;;;5.33;4.67;;;;;;;23.07;56.91;101218.77;1793479;79;21069;-77
2021/08/12 06:21:51;;;;;;;4.60;3.90;;;;;;;23.11;56.55;101216.41;1752236;80;21729;-77
2021/08/12 06:24:17;;;;;;;5.45;4.10;;;;;;;23.08;56.24;101225.84;1770274;80;21074;-78
2021/08/12 06:26:44;;;;;;;14.73;4.75;;;;;;;23.06;55.94;101219.82;1744050;80;20999;-78
2021/08/12 06:29:11;;;;;;;10.75;4.72;;;;;;;23.21;55.66;101225.67;1743605;82;21105;-77
2021/08/12 06:31:38;;;;;;;6.42;3.95;;;;;;;23.28;55.38;101225.03;1780740;80;21006;-78
2021/08/12 06:34:04;;;;;;;7.87;4.25;;;;;;;23.37;55.07;101227.70;1754733;80;21772;-78
2021/08/12 06:36:33;;;;;;;7.72;3.67;;;;;;;23.50;54.79;101235.41;1819845;78;21016;-78
2021/08/12 06:39:00;;;;;;;8.58;3.60;;;;;;;23.56;54.47;101233.11;1789332;78;21038;-78
2021/08/12 06:41:27;;;;;;;5.03;3.45;;;;;;;23.56;54.23;101229.02;1815019;78;21065;-78
2021/08/12 06:43:53;;;;;;;7.45;4.40;;;;;;;23.63;53.95;101236.55;1776588;80;21007;-77
2021/08/12 06:46:19;;;;;;;4.42;3.40;;;;;;;23.62;53.67;101235.71;1803205;77;21978;-76
2021/08/12 06:48:45;;;;;;;6.60;4.33;;;;;;;23.69;53.35;101226.06;1791279;79;21440;-75
2021/08/12 06:51:11;;;;;;;6.33;4.37;;;;;;;23.72;53.12;101226.95;1801437;79;20950;-76
2021/08/12 06:53:37;;;;;;;7.85;3.65;;;;;;;23.82;52.87;101223.94;1744071;80;21491;-75
2021/08/12 06:56:04;;;;;;;7.12;3.90;;;;;;;23.93;52.63;101226.36;1761504;79;20992;-77
2021/08/12 06:58:30;;;;;;;4.53;4.00;;;;;;;23.99;52.30;101229.52;1730512;82;21997;-75
2021/08/12 07:00:56;;;;;;;6.08;3.90;;;;;;;24.09;52.14;101230.27;1730162;82;21016;-77
2021/08/12 07:03:22;;;;;;;7.83;4.28;;;;;;;24.25;51.94;101235.02;1737426;81;21075;-76
2021/08/12 07:05:48;;;;;;;5.20;3.35;;;;;;;24.38;51.69;101236.67;1804254;77;21613;-77
2021/08/12 07:08:14;;;;;;;12.93;3.40;;;;;;;24.41;51.41;101229.37;1785197;78;21364;-76
2021/08/12 07:10:40;;;;;;;4.55;3.45;;;;;;;24.40;51.17;101224.97;1784068;78;22571;-77
2021/08/12 07:13:07;;;;;;;5.28;2.87;;;;;;;24.51;50.99;101224.13;1781525;80;21066;-76
2021/08/12 07:15:33;;;;;;;4.92;2.52;;;;;;;24.56;50.74;101229.70;1782430;79;21049;-76
2021/08/12 07:18:00;;;;;;;5.25;3.30;;;;;;;24.61;50.45;101229.78;1794197;79;21010;-76
2021/08/12 07:20:26;;;;;;;13.78;4.87;;;;;;;24.69;50.27;101234.33;1762265;80;21546;-76
2021/08/12 07:22:52;;;;;;;7.15;4.20;;;;;;;24.78;50.00;101236.95;1746690;80;22672;-77
2021/08/12 07:25:21;;;;;;;8.65;4.97;;;;;;;24.81;49.71;101243.29;1743623;80;21054;-76
2021/08/12 07:27:49;;;;;;;6.35;3.80;;;;;;;24.79;49.63;101243.25;1770790;80;21448;-77
2021/08/12 07:30:15;;;;;;;5.25;3.77;;;;;;;24.89;49.35;101243.47;1773600;80;21039;-77
2021/08/12 07:32:41;;;;;;;5.05;4.12;;;;;;;24.95;49.30;101243.86;1772925;79;21059;-76
2021/08/12 07:35:08;;;;;;;5.47;3.10;;;;;;;25.02;49.15;101244.53;1771440;80;21894;-76
2021/08/12 07:37:35;;;;;;;4.47;3.35;;;;;;;25.04;48.66;101250.59;1773118;80;21301;-76
2021/08/12 07:40:01;;;;;;;6.42;3.30;;;;;;;25.07;48.53;101247.91;1774295;80;21047;-77
2021/08/12 07:42:27;;;;;;;5.97;4.75;;;;;;;25.15;48.21;101249.72;1754151;81;21050;-76
2021/08/12 07:44:53;;;;;;;5.90;3.40;;;;;;;25.20;47.99;101251.16;1723322;82;21006;-77
2021/08/12 07:47:19;;;;;;;6.00;2.60;;;;;;;25.26;47.81;101251.53;1767071;80;21931;-77
2021/08/12 07:49:46;;;;;;;3.15;2.85;;;;;;;25.22;47.44;101255.86;1757839;80;21015;-76
2021/08/12 07:52:12;;;;;;;13.48;4.00;;;;;;;25.24;47.07;101254.23;1761911;80;21096;-77
2021/08/12 07:54:38;;;;;;;3.55;2.87;;;;;;;25.27;46.75;101252.36;1754324;79;20944;-77
2021/08/12 07:57:05;;;;;;;4.83;3.02;;;;;;;25.31;46.46;101253.53;1743477;81;21404;-77
2021/08/12 07:59:31;;;;;;;4.08;3.65;;;;;;;25.30;46.26;101245.88;1706359;84;22391;-76
2021/08/12 08:01:57;;;;;;;6.42;3.77;;;;;;;25.38;46.04;101250.11;1744217;81;20904;-77
2021/08/12 08:04:23;;;;;;;5.03;2.95;;;;;;;25.46;45.94;101252.98;1744735;81;20983;-76
2021/08/12 08:06:49;;;;;;;3.45;2.72;;;;;;;25.56;45.94;101244.98;1743925;81;21043;-77
2021/08/12 08:09:15;;;;;;;4.25;3.00;;;;;;;25.64;45.70;101259.60;1706999;83;21003;-77
2021/08/12 08:11:41;;;;;;;3.20;2.45;;;;;;;25.68;45.58;101259.41;1706752;84;21838;-77
2021/08/12 08:14:08;;;;;;;6.58;3.35;;;;;;;25.56;45.58;101256.74;1708456;84;21014;-77
2021/08/12 08:16:34;;;;;;;3.25;2.80;;;;;;;25.43;45.34;101250.74;1744618;81;21472;-77
2021/08/12 08:19:00;;;;;;;3.58;2.85;;;;;;;25.39;45.41;101255.04;1706557;83;20919;-77
2021/08/12 08:21:28;;;;;;;6.67;3.65;;;;;;;25.56;45.25;101253.17;1743204;81;21015;-77
2021/08/12 08:23:55;;;;;;;9.13;3.40;;;;;;;25.68;45.15;101253.94;1744257;81;22465;-77
2021/08/12 08:26:21;;;;;;;11.03;3.92;;;;;;;25.69;45.16;101252.84;1742365;82;21026;-77
2021/08/12 08:28:47;;;;;;;10.58;3.47;;;;;;;25.74;45.15;101261.13;1706848;83;21030;-77
2021/08/12 08:31:13;;;;;;;4.67;3.17;;;;;;;25.71;44.99;101254.80;1708489;83;20999;-77
2021/08/12 08:33:39;;;;;;;27.00;5.03;;;;;;;25.62;44.75;101254.91;1708933;83;21518;-77
2021/08/12 08:36:06;;;;;;;9.85;3.50;;;;;;;25.65;44.75;101259.91;1742800;81;21500;-77
2021/08/12 08:38:32;;;;;;;6.37;3.10;;;;;;;25.65;44.69;101257.17;1742743;82;21029;-77
2021/08/12 08:40:58;;;;;;;5.53;3.33;;;;;;;25.62;44.50;101265.30;1743103;82;21468;-77
2021/08/12 08:43:24;;;;;;;5.53;3.17;;;;;;;25.51;44.29;101264.03;1742408;82;21107;-77
2021/08/12 08:45:52;;;;;;;6.35;3.22;;;;;;;25.47;44.18;101261.47;1743146;82;21369;-77
2021/08/12 08:48:19;;;;;;;5.92;3.22;;;;;;;25.35;44.07;101258.27;1744805;82;21900;-77
2021/08/12 08:50:45;;;;;;;4.25;3.20;;;;;;;25.46;44.19;101263.91;1743403;82;21531;-77
2021/08/12 08:53:17;;;;;;;10.25;3.60;;;;;;;25.51;44.06;101265.41;1706544;84;20926;-77
2021/08/12 08:55:44;;;;;;;3.90;2.83;;;;;;;25.53;44.18;101267.34;1706729;84;21018;-77
2021/08/12 08:58:11;;;;;;;6.67;3.15;;;;;;;25.61;44.06;101263.67;1706659;84;21020;-77
2021/08/12 09:00:37;;;;;;;3.17;2.60;;;;;;;25.56;43.95;101261.38;1733603;82;22471;-77
2021/08/12 09:03:03;;;;;;;4.17;2.42;;;;;;;25.51;43.91;101264.03;1743812;82;21022;-77
2021/08/12 09:05:29;;;;;;;3.15;2.60;;;;;;;25.60;43.83;101259.80;1744916;82;21014;-77
2021/08/12 09:07:55;;;;;;;4.20;2.42;;;;;;;25.74;43.76;101266.59;1743413;82;20999;-77
2021/08/12 09:10:21;;;;;;;5.85;2.62;;;;;;;25.70;43.69;101256.70;1743595;82;20995;-77
2021/08/12 09:12:49;;;;;;;3.72;2.62;;;;;;;25.67;43.52;101256.38;1742622;81;21673;-77
2021/08/12 09:15:20;;;;;;;7.85;3.02;;;;;;;25.71;43.54;101256.17;1742178;82;21038;-77
2021/08/12 09:17:44;;;;;;;2.37;2.10;;;;;;;25.78;43.50;101256.83;1743299;81;20991;-77
2021/08/12 09:20:16;;;;;;;4.70;2.77;;;;;;;25.91;43.38;101260.58;1718295;82;21235;-77
2021/08/12 09:22:51;;;;;;;4.85;2.33;;;;;;;25.64;43.18;101254.97;1743701;82;21030;-77
2021/08/12 09:25:40;;;;;;;3.22;2.80;;;;;;;25.74;43.10;101257.03;1706806;83;21711;-77
2021/08/12 09:28:27;;;;;;;5.65;2.77;;;;;;;25.74;42.98;101259.77;1739541;82;21046;-77
2021/08/12 09:31:04;;;;;;;5.85;3.00;;;;;;;25.80;42.92;101254.66;1760058;81;21475;-77
2021/08/12 09:33:42;;;;;;;3.73;2.03;;;;;;;25.98;42.96;101248.94;1744476;80;21422;-77
2021/08/12 09:36:28;;;;;;;3.17;2.33;;;;;;;25.96;42.79;101253.00;1747752;79;21040;-77
2021/08/12 09:39:13;;;;;;;7.20;2.45;;;;;;;25.76;42.59;101257.59;1753830;81;21898;-77
2021/08/12 09:41:43;;;;;;;3.50;2.45;;;;;;;25.68;42.61;101262.14;1722837;83;20991;-77
2021/08/12 09:44:40;;;;;;;4.87;3.17;;;;;;;25.66;42.42;101249.23;1701528;82;21413;-77
2021/08/12 09:47:15;;;;;;;5.47;2.92;;;;;;;25.37;42.37;101247.64;1693216;83;21016;-77
2021/08/12 09:49:49;;;;;;;3.98;2.55;;;;;;;24.98;42.47;101248.02;1717144;83;21492;-77
2021/08/12 09:52:34;;;;;;;4.62;2.80;;;;;;;24.59;42.54;101246.94;1652788;85;22416;-77
2021/08/12 09:55:18;;;;;;;4.28;2.30;;;;;;;24.19;42.71;101247.72;1709661;82;21503;-77
2021/08/12 09:57:58;;;;;;;4.03;2.10;;;;;;;24.38;42.94;101239.40;1694419;83;21011;-78
2021/08/12 10:00:35;;;;;;;4.10;2.05;;;;;;;24.70;42.79;101240.63;1701041;83;21066;-78
2021/08/12 10:03:02;;;;;;;3.55;2.47;;;;;;;25.00;42.54;101235.78;1715669;83;21407;-77
2021/08/12 10:05:30;;;;;;;2.98;2.22;;;;;;;25.15;42.36;101233.33;1694097;83;21845;-78
2021/08/12 10:07:56;;;;;;;2.10;1.90;;;;;;;25.20;42.35;101235.30;1708651;83;21452;-77
2021/08/12 10:10:29;;;;;;;2.75;2.25;;;;;;;25.28;42.14;101233.02;1699622;84;21114;-77
2021/08/12 10:12:58;;;;;;;5.15;2.42;;;;;;;25.37;42.01;101231.25;1680104;84;21031;-78
2021/08/12 10:15:29;;;;;;;2.17;1.90;;;;;;;25.49;41.86;101231.98;1699539;84;20900;-77
2021/08/12 10:17:57;;;;;;;2.35;1.80;;;;;;;25.65;41.69;101240.21;1699288;84;21817;-77
2021/08/12 10:20:30;;;;;;;5.03;2.17;;;;;;;25.70;41.46;101235.38;1683182;85;21643;-78
2021/08/12 10:22:58;;;;;;;3.65;2.20;;;;;;;25.67;41.22;101230.41;1699128;84;21094;-77
2021/08/12 10:25:25;;;;;;;3.20;1.92;;;;;;;25.52;40.97;101233.72;1699395;83;21012;-78
2021/08/12 10:27:57;;;;;;;3.00;2.10;;;;;;;25.60;40.99;101235.22;1699653;84;20931;-77
2021/08/12 10:30:25;;;;;;;2.77;1.92;;;;;;;25.71;41.01;101242.50;1699704;84;21777;-77
2021/08/12 10:33:03;;;;;;;3.12;2.50;;;;;;;25.50;40.84;101237.75;1683658;85;21421;-77
2021/08/12 10:35:31;;;;;;;6.85;2.42;;;;;;;25.09;40.92;101241.12;1716376;81;21060;-77
2021/08/12 10:37:58;;;;;;;6.83;2.52;;;;;;;24.72;41.09;101241.20;1746515;81;21447;-77
2021/08/12 10:40:26;;;;;;;3.15;2.60;;;;;;;24.47;41.24;101243.40;1745079;81;21009;-77
2021/08/12 10:42:52;;;;;;;6.45;2.70;;;;;;;24.32;41.43;101242.00;1745592;82;21832;-77
2021/08/12 10:45:20;;;;;;;5.20;2.70;;;;;;;24.21;41.61;101239.28;1724188;82;21444;-77
2021/08/12 10:47:54;;;;;;;3.05;2.37;;;;;;;24.15;41.66;101239.72;1745389;82;21078;-77
2021/08/12 10:50:27;;;;;;;4.40;2.52;;;;;;;24.12;41.75;101238.80;1745299;81;21004;-78
2021/08/12 10:53:10;;;;;;;3.85;2.70;;;;;;;24.08;41.97;101242.23;1745114;80;21074;-77
2021/08/12 10:55:49;;;;;;;3.17;2.40;;;;;;;23.92;42.41;101232.90;1744950;81;21785;-77
2021/08/12 10:58:28;;;;;;;4.17;2.27;;;;;;;23.75;42.64;101237.41;1745331;81;21470;-77
2021/08/12 11:01:06;;;;;;;4.58;2.92;;;;;;;23.63;42.84;101240.63;1745348;82;20964;-77
2021/08/12 11:03:43;;;;;;;3.17;2.33;;;;;;;23.62;43.15;101234.88;1745591;81;21434;-77
2021/08/12 11:06:17;;;;;;;2.83;2.42;;;;;;;23.63;43.37;101228.38;1744365;81;21472;-77
2021/08/12 11:08:57;;;;;;;3.58;2.37;;;;;;;23.77;43.54;101224.36;1760847;80;20975;-77
2021/08/12 11:11:34;;;;;;;;;;;;;;;23.99;43.63;101228.16;1749940;80;21412;-79
2021/08/12 11:14:10;;;;;;;3.70;2.50;;;;;;;24.22;43.51;101216.41;1743905;80;20202;-79
2021/08/12 11:16:51;;;;;;;4.47;2.20;;;;;;;24.60;43.51;101214.47;1770738;80;20984;-79
2021/08/12 11:19:29;;;;;;;2.50;2.30;;;;;;;24.93;43.34;101213.27;1749423;79;21410;-79
2021/08/12 11:21:56;;;;;;;6.30;2.12;;;;;;;24.99;43.08;101209.55;1746114;80;21756;-80
2021/08/12 11:24:30;;;;;;;3.87;2.25;;;;;;;25.13;43.07;101204.07;1748659;80;21050;-79